createdAt,value
2019-05-21T00:00:50.013Z,0.70
2019-05-21T00:03:18.279Z,0.83
2019-05-21T00:05:46.518Z,0.90
2019-05-21T00:08:14.825Z,0.73
2019-05-21T00:10:43.063Z,0.80
2019-05-21T00:13:11.326Z,1.20
2019-05-21T00:15:39.654Z,0.70
2019-05-21T00:18:07.909Z,0.70
2019-05-21T00:20:36.169Z,1.20
2019-05-21T00:23:04.434Z,1.23
2019-05-21T00:25:32.665Z,0.80
2019-05-21T00:28:22.103Z,0.90
2019-05-21T00:31:26.945Z,0.90
2019-05-21T00:34:43.471Z,0.70
2019-05-21T00:37:37.938Z,0.63
2019-05-21T00:40:43.055Z,0.90
2019-05-21T00:43:11.345Z,0.80
2019-05-21T00:45:39.623Z,1.00
2019-05-21T00:48:07.972Z,0.70
2019-05-21T00:50:36.326Z,0.80
2019-05-21T00:53:04.646Z,0.83
2019-05-21T00:55:32.893Z,0.80
2019-05-21T00:58:01.175Z,0.90
2019-05-21T01:00:29.445Z,0.90
2019-05-21T01:02:57.771Z,0.60
2019-05-21T01:05:26.089Z,1.20
2019-05-21T01:07:54.408Z,1.40
2019-05-21T01:10:22.750Z,1.40
2019-05-21T01:12:51.003Z,1.03
2019-05-21T01:15:19.271Z,0.83
2019-05-21T01:17:49.149Z,0.90
2019-05-21T01:20:18.057Z,1.07
2019-05-21T01:22:46.318Z,0.70
2019-05-21T01:25:34.040Z,0.80
2019-05-21T01:28:02.345Z,0.90
2019-05-21T01:30:30.631Z,0.80
2019-05-21T01:32:58.862Z,0.90
2019-05-21T01:35:27.137Z,0.90
2019-05-21T01:37:55.426Z,1.07
2019-05-21T01:40:23.679Z,0.80
2019-05-21T01:42:52.044Z,0.87
2019-05-21T01:45:20.282Z,0.90
2019-05-21T01:47:48.577Z,1.90
2019-05-21T01:50:16.831Z,0.70
2019-05-21T01:52:45.121Z,1.17
2019-05-21T01:55:13.367Z,0.90
2019-05-21T01:57:41.657Z,1.10
2019-05-21T02:00:09.973Z,0.87
2019-05-21T02:02:38.238Z,0.90
2019-05-21T02:05:06.842Z,0.60
2019-05-21T02:07:35.135Z,0.60
2019-05-21T02:10:05.692Z,0.70
2019-05-21T02:12:33.980Z,0.80
2019-05-21T02:15:02.283Z,0.67
2019-05-21T02:17:30.560Z,0.93
2019-05-21T02:19:58.815Z,0.80
2019-05-21T02:22:27.084Z,0.60
2019-05-21T02:24:55.367Z,0.90
2019-05-21T02:27:23.622Z,0.80
2019-05-21T02:29:51.871Z,0.70
2019-05-21T02:32:20.296Z,0.90
2019-05-21T02:34:48.592Z,0.60
2019-05-21T02:37:16.867Z,0.70
2019-05-21T02:39:45.153Z,0.73
2019-05-21T02:42:13.438Z,0.60
2019-05-21T02:44:41.776Z,0.80
2019-05-21T02:47:10.065Z,1.00
2019-05-21T02:49:38.328Z,0.53
2019-05-21T02:52:06.579Z,1.07
2019-05-21T02:54:40.841Z,0.93
2019-05-21T02:57:04.844Z,0.70
2019-05-21T02:59:33.093Z,0.80
2019-05-21T03:02:09.174Z,0.90
2019-05-21T03:04:37.460Z,0.53
2019-05-21T03:07:07.362Z,0.80
2019-05-21T03:09:35.648Z,0.80
2019-05-21T03:12:03.892Z,0.73
2019-05-21T03:14:32.185Z,0.60
2019-05-21T03:17:00.434Z,0.60
2019-05-21T03:19:28.710Z,0.80
2019-05-21T03:21:57.009Z,0.70
2019-05-21T03:24:25.251Z,0.50
2019-05-21T03:26:53.534Z,0.77
2019-05-21T03:29:21.870Z,0.63
2019-05-21T03:31:50.149Z,0.63
2019-05-21T03:34:18.399Z,0.60
2019-05-21T03:36:46.680Z,0.50
2019-05-21T03:39:19.088Z,0.80
2019-05-21T03:41:44.928Z,0.70
2019-05-21T03:44:13.231Z,0.67
2019-05-21T03:46:41.489Z,0.70
2019-05-21T03:49:09.854Z,0.70
2019-05-21T03:51:38.144Z,0.50
2019-05-21T03:54:18.279Z,0.70
2019-05-21T03:56:36.392Z,0.60
2019-05-21T03:59:04.677Z,0.80
2019-05-21T04:01:33.014Z,0.70
2019-05-21T04:04:01.279Z,0.67
2019-05-21T04:06:29.583Z,0.63
2019-05-21T04:08:57.846Z,0.63
2019-05-21T04:11:26.078Z,0.60
2019-05-21T04:13:54.376Z,0.67
2019-05-21T04:16:40.337Z,0.53
2019-05-21T04:19:22.509Z,0.70
2019-05-21T04:21:50.739Z,0.67
2019-05-21T04:24:19.036Z,0.80
2019-05-21T04:26:47.369Z,0.57
2019-05-21T04:29:15.641Z,0.70
2019-05-21T04:31:44.046Z,0.90
2019-05-21T04:34:12.440Z,0.70
2019-05-21T04:36:40.861Z,0.50
2019-05-21T04:39:09.192Z,1.00
2019-05-21T04:41:37.434Z,0.90
2019-05-21T04:44:05.727Z,0.50
2019-05-21T04:46:34.010Z,0.53
2019-05-21T04:49:02.258Z,0.70
2019-05-21T04:51:30.530Z,0.50
2019-05-21T04:53:58.843Z,0.50
2019-05-21T04:56:27.129Z,0.60
2019-05-21T04:58:55.375Z,0.50
2019-05-21T05:01:23.731Z,0.60
2019-05-21T05:03:51.985Z,0.70
2019-05-21T05:06:20.238Z,0.70
2019-05-21T05:08:48.513Z,0.60
2019-05-21T05:11:16.789Z,0.60
2019-05-21T05:13:45.028Z,0.50
2019-05-21T05:16:13.303Z,0.60
2019-05-21T05:18:41.598Z,0.60
2019-05-21T05:21:09.840Z,0.60
2019-05-21T05:23:38.110Z,0.60
2019-05-21T05:26:06.371Z,0.50
2019-05-21T05:28:34.671Z,0.67
2019-05-21T05:31:03.027Z,0.40
2019-05-21T05:33:31.327Z,0.97
2019-05-21T05:35:59.624Z,0.57
2019-05-21T05:38:27.860Z,0.98
2019-05-21T05:40:56.213Z,0.93
2019-05-21T05:43:24.528Z,1.57
2019-05-21T05:45:52.782Z,1.17
2019-05-21T05:48:21.641Z,2.67
2019-05-21T05:50:51.555Z,1.60
2019-05-21T05:53:20.012Z,1.50
2019-05-21T05:55:48.323Z,1.07
2019-05-21T05:58:16.589Z,0.83
2019-05-21T06:00:45.190Z,0.60
2019-05-21T06:03:13.448Z,3.83
2019-05-21T06:05:41.746Z,2.20
2019-05-21T06:08:10.008Z,1.87
2019-05-21T06:10:40.146Z,2.50
2019-05-21T06:13:08.275Z,1.90
2019-05-21T06:15:36.565Z,3.20
2019-05-21T06:18:04.834Z,1.93
2019-05-21T06:20:33.116Z,1.80
2019-05-21T06:23:01.380Z,1.50
2019-05-21T06:25:29.706Z,1.40
2019-05-21T06:27:58.085Z,1.70
2019-05-21T06:30:26.362Z,1.90
2019-05-21T06:32:54.632Z,1.70
2019-05-21T06:35:22.956Z,1.70
2019-05-21T06:37:51.335Z,1.43
2019-05-21T06:40:21.234Z,1.37
2019-05-21T06:42:49.540Z,1.93
2019-05-21T06:45:18.603Z,2.87
2019-05-21T06:47:46.873Z,1.63
2019-05-21T06:50:15.125Z,1.43
2019-05-21T06:52:43.527Z,1.07
2019-05-21T06:55:11.884Z,0.77
2019-05-21T06:57:40.180Z,0.77
2019-05-21T07:00:08.434Z,1.47
2019-05-21T07:02:36.721Z,1.97
2019-05-21T07:05:04.961Z,1.13
2019-05-21T07:07:33.248Z,1.10
2019-05-21T07:10:01.522Z,0.93
2019-05-21T07:12:29.886Z,0.83
2019-05-21T07:14:58.134Z,1.20
2019-05-21T07:17:26.495Z,1.00
2019-05-21T07:19:54.795Z,0.90
2019-05-21T07:22:23.326Z,0.83
2019-05-21T07:24:51.620Z,1.00
2019-05-21T07:27:19.991Z,0.80
2019-05-21T07:29:48.286Z,1.10
2019-05-21T07:32:16.575Z,0.70
2019-05-21T07:34:44.875Z,1.10
2019-05-21T07:37:13.130Z,0.60
2019-05-21T07:39:41.414Z,0.60
2019-05-21T07:42:09.663Z,0.83
2019-05-21T07:44:37.911Z,0.77
2019-05-21T07:47:06.332Z,0.90
2019-05-21T07:49:34.724Z,0.60
2019-05-21T07:52:03.094Z,0.97
2019-05-21T07:54:31.353Z,1.00
2019-05-21T07:56:59.629Z,0.70
2019-05-21T07:59:27.901Z,0.93
2019-05-21T08:01:56.145Z,0.60
2019-05-21T08:04:24.495Z,0.87
2019-05-21T08:06:52.731Z,0.70
2019-05-21T08:09:21.026Z,0.77
2019-05-21T08:11:49.278Z,1.47
2019-05-21T08:14:17.629Z,0.53
2019-05-21T08:16:45.904Z,0.70
2019-05-21T08:19:14.138Z,0.60
2019-05-21T08:21:42.401Z,0.60
2019-05-21T08:24:10.694Z,0.50
2019-05-21T08:26:39.145Z,0.67
2019-05-21T08:29:07.486Z,0.90
2019-05-21T08:31:35.737Z,0.50
2019-05-21T08:34:04.032Z,0.50
2019-05-21T08:36:32.285Z,0.50
2019-05-21T08:39:00.547Z,0.50
2019-05-21T08:41:28.836Z,0.60
2019-05-21T08:43:57.136Z,0.47
2019-05-21T08:46:25.383Z,0.80
2019-05-21T08:48:53.650Z,0.43
2019-05-21T08:51:21.991Z,0.60
2019-05-21T08:53:50.230Z,0.43
2019-05-21T08:56:18.514Z,0.40
2019-05-21T08:58:46.772Z,0.63
2019-05-21T09:01:15.055Z,0.70
2019-05-21T09:03:43.285Z,0.50
2019-05-21T09:06:11.592Z,0.73
2019-05-21T09:08:39.856Z,0.50
2019-05-21T09:11:08.119Z,0.40
2019-05-21T09:13:36.401Z,0.70
2019-05-21T09:16:04.650Z,0.70
2019-05-21T09:18:33.007Z,0.50
2019-05-21T09:21:01.301Z,0.50
2019-05-21T09:23:29.657Z,0.50
2019-05-21T09:25:57.951Z,0.50
2019-05-21T09:28:26.342Z,0.50
2019-05-21T09:30:54.592Z,0.40
2019-05-21T09:33:22.854Z,0.50
2019-05-21T09:35:51.118Z,0.40
2019-05-21T09:38:19.404Z,0.40
2019-05-21T09:40:47.645Z,0.50
2019-05-21T09:43:15.928Z,0.40
2019-05-21T09:45:44.467Z,0.40
2019-05-21T09:48:12.716Z,0.40
2019-05-21T09:50:41.022Z,0.40
2019-05-21T09:53:09.285Z,0.40
2019-05-21T09:55:37.573Z,0.50
2019-05-21T09:58:13.466Z,0.30
2019-05-21T10:00:49.329Z,0.40
2019-05-21T10:03:19.208Z,0.30
2019-05-21T10:05:47.488Z,0.40
2019-05-21T10:08:15.770Z,0.60
2019-05-21T10:10:44.026Z,0.50
2019-05-21T10:13:12.309Z,0.40
2019-05-21T10:15:40.589Z,0.30
2019-05-21T10:18:08.969Z,0.33
2019-05-21T10:20:37.225Z,0.40
2019-05-21T10:23:05.521Z,0.40
2019-05-21T10:25:33.884Z,0.50
2019-05-21T10:28:02.161Z,0.43
2019-05-21T10:30:30.418Z,0.40
2019-05-21T10:32:58.721Z,0.47
2019-05-21T10:35:26.987Z,0.40
2019-05-21T10:37:55.611Z,0.30
2019-05-21T10:40:23.998Z,0.40
2019-05-21T10:42:52.248Z,0.30
2019-05-21T10:45:20.959Z,0.43
2019-05-21T10:47:49.210Z,0.30
2019-05-21T10:50:17.579Z,0.40
2019-05-21T10:52:45.852Z,0.40
2019-05-21T10:55:17.702Z,0.40
2019-05-21T10:57:46.131Z,0.47
2019-05-21T11:00:22.765Z,0.50
2019-05-21T11:02:50.512Z,0.30
2019-05-21T11:05:29.824Z,0.30
2019-05-21T11:08:20.779Z,0.30
2019-05-21T11:10:28.103Z,0.30
2019-05-21T11:12:56.436Z,0.33
2019-05-21T11:15:26.359Z,0.40
2019-05-21T11:18:09.760Z,0.30
2019-05-21T11:20:24.599Z,0.30
2019-05-21T11:22:52.900Z,0.30
2019-05-21T11:25:21.159Z,0.30
2019-05-21T11:27:49.451Z,0.30
2019-05-21T11:30:18.073Z,0.30
2019-05-21T11:32:48.005Z,0.40
2019-05-21T11:35:16.329Z,0.40
2019-05-21T11:37:47.698Z,0.40
2019-05-21T11:40:14.737Z,0.30
2019-05-21T11:42:43.022Z,0.30
2019-05-21T11:45:11.310Z,0.33
2019-05-21T11:47:39.567Z,0.40
2019-05-21T11:50:08.614Z,0.40
2019-05-21T11:52:37.168Z,0.40
2019-05-21T11:55:05.439Z,0.40
2019-05-21T11:57:33.725Z,0.40
2019-05-21T12:00:02.045Z,0.30
2019-05-21T12:02:30.300Z,0.40
2019-05-21T12:04:58.592Z,0.40
2019-05-21T12:07:26.910Z,0.30
2019-05-21T12:09:55.171Z,0.40
2019-05-21T12:12:23.476Z,0.40
2019-05-21T12:14:51.770Z,0.33
2019-05-21T12:17:20.023Z,0.50
2019-05-21T12:19:48.314Z,0.33
2019-05-21T12:22:16.569Z,0.40
2019-05-21T12:24:44.820Z,0.40
2019-05-21T12:27:13.090Z,0.40
2019-05-21T12:29:41.458Z,0.30
2019-05-21T12:32:09.718Z,0.30
2019-05-21T12:34:39.025Z,0.30
2019-05-21T12:37:07.620Z,0.30
2019-05-21T12:39:35.942Z,0.30
2019-05-21T12:42:04.311Z,0.33
2019-05-21T12:44:32.606Z,0.33
2019-05-21T12:47:00.917Z,0.40
2019-05-21T12:49:29.151Z,0.37
2019-05-21T12:51:57.445Z,0.40
2019-05-21T12:54:25.790Z,0.30
2019-05-21T12:56:54.155Z,0.50
2019-05-21T12:59:22.403Z,0.40
2019-05-21T13:01:50.773Z,0.40
2019-05-21T13:04:19.078Z,0.40
2019-05-21T13:06:47.394Z,0.40
2019-05-21T13:09:31.347Z,0.40
2019-05-21T13:11:45.743Z,0.40
2019-05-21T13:14:18.249Z,0.40
2019-05-21T13:16:44.082Z,0.33
2019-05-21T13:19:12.471Z,0.40
2019-05-21T13:21:40.873Z,0.33
2019-05-21T13:24:09.263Z,0.40
2019-05-21T13:26:37.570Z,0.40
2019-05-21T13:29:05.881Z,0.40
2019-05-21T13:31:34.214Z,0.40
2019-05-21T13:34:02.469Z,0.40
2019-05-21T13:36:30.729Z,0.43
2019-05-21T13:39:20.085Z,0.40
2019-05-21T13:41:48.377Z,0.70
2019-05-21T13:44:16.652Z,0.40
2019-05-21T13:46:44.941Z,0.33
2019-05-21T13:49:13.186Z,0.40
2019-05-21T13:51:41.468Z,0.50
2019-05-21T13:54:09.735Z,0.50
2019-05-21T13:56:38.013Z,0.50
2019-05-21T13:59:06.245Z,0.50
2019-05-21T14:01:40.845Z,0.53
2019-05-21T14:04:05.046Z,0.40
2019-05-21T14:06:33.319Z,0.50
2019-05-21T14:09:01.595Z,0.50
2019-05-21T14:11:30.099Z,0.60
2019-05-21T14:13:58.385Z,0.40
2019-05-21T14:16:26.688Z,0.50
2019-05-21T14:18:55.042Z,0.50
2019-05-21T14:21:23.351Z,0.40
2019-05-21T14:23:51.642Z,0.50
2019-05-21T14:26:19.888Z,0.50
2019-05-21T14:28:48.206Z,0.60
2019-05-21T14:31:16.471Z,0.53
2019-05-21T14:33:46.805Z,0.53
2019-05-21T14:36:14.729Z,0.73
2019-05-21T14:38:43.071Z,0.60
2019-05-21T14:41:11.331Z,0.80
2019-05-21T14:43:39.651Z,0.57
2019-05-21T14:46:07.893Z,0.57
2019-05-21T14:48:36.164Z,0.67
2019-05-21T14:51:05.121Z,0.50
2019-05-21T14:53:33.404Z,0.50
2019-05-21T14:56:01.665Z,0.70
2019-05-21T14:58:29.910Z,0.50
2019-05-21T15:00:58.225Z,0.60
2019-05-21T15:03:29.357Z,0.60
2019-05-21T15:05:56.686Z,0.80
2019-05-21T15:08:24.950Z,0.53
2019-05-21T15:10:53.207Z,0.60
2019-05-21T15:13:21.475Z,0.70
2019-05-21T15:15:49.768Z,0.50
2019-05-21T15:18:21.864Z,0.60
2019-05-21T15:20:52.818Z,0.50
2019-05-21T15:23:21.110Z,0.97
2019-05-21T15:25:49.474Z,0.50
2019-05-21T15:28:17.793Z,0.60
2019-05-21T15:30:46.080Z,0.60
2019-05-21T15:33:14.436Z,0.60
2019-05-21T15:35:42.763Z,0.60
2019-05-21T15:38:11.087Z,0.80
2019-05-21T15:40:39.431Z,0.60
2019-05-21T15:43:07.724Z,0.80
2019-05-21T15:45:36.007Z,0.73
2019-05-21T15:48:04.352Z,0.63
2019-05-21T15:50:32.606Z,0.50
2019-05-21T15:53:00.878Z,0.60
2019-05-21T15:55:29.160Z,0.70
2019-05-21T15:57:57.499Z,0.97
2019-05-21T16:00:25.749Z,0.97
2019-05-21T16:02:54.227Z,1.17
2019-05-21T16:05:22.464Z,1.03
2019-05-21T16:07:50.737Z,0.57
2019-05-21T16:10:19.026Z,0.97
2019-05-21T16:12:47.323Z,0.73
2019-05-21T16:15:15.552Z,1.43
2019-05-21T16:17:43.816Z,0.93
2019-05-21T16:20:12.131Z,0.93
2019-05-21T16:22:40.459Z,1.30
2019-05-21T16:25:08.947Z,1.30
2019-05-21T16:27:37.222Z,0.73
2019-05-21T16:30:08.572Z,0.70
2019-05-21T16:32:36.936Z,1.00
2019-05-21T16:35:07.149Z,0.93
2019-05-21T16:37:35.545Z,0.90
2019-05-21T16:40:06.085Z,1.40
2019-05-21T16:42:34.453Z,1.10
2019-05-21T16:45:03.478Z,1.20
2019-05-21T16:47:44.495Z,1.10
2019-05-21T16:50:01.784Z,1.10
2019-05-21T16:52:30.087Z,1.37
2019-05-21T16:54:58.388Z,1.80
2019-05-21T16:57:26.673Z,1.93
2019-05-21T16:59:55.006Z,1.13
2019-05-21T17:02:23.285Z,1.03
2019-05-21T17:04:51.568Z,0.70
2019-05-21T17:07:19.882Z,0.90
2019-05-21T17:09:48.234Z,0.90
2019-05-21T17:12:16.493Z,0.80
2019-05-21T17:14:44.783Z,1.10
2019-05-21T17:17:13.093Z,1.30
2019-05-21T17:19:41.400Z,1.67
2019-05-21T17:22:09.720Z,1.37
2019-05-21T17:24:37.993Z,1.37
2019-05-21T17:27:06.285Z,0.80
2019-05-21T17:29:34.582Z,1.17
2019-05-21T17:32:06.356Z,1.40
2019-05-21T17:34:32.856Z,1.83
2019-05-21T17:37:01.148Z,1.67
2019-05-21T17:39:29.486Z,2.10
2019-05-21T17:41:57.733Z,1.67
2019-05-21T17:44:26.005Z,1.67
2019-05-21T17:46:54.270Z,1.77
2019-05-21T17:49:22.635Z,1.80
2019-05-21T17:51:51.067Z,1.67
2019-05-21T17:54:19.365Z,1.13
2019-05-21T17:56:47.655Z,1.30
2019-05-21T17:59:15.983Z,0.90
2019-05-21T18:01:44.303Z,0.93
2019-05-21T18:04:12.866Z,0.90
2019-05-21T18:06:41.195Z,1.30
2019-05-21T18:09:11.763Z,2.00
2019-05-21T18:11:40.313Z,1.10
2019-05-21T18:14:09.300Z,1.23
2019-05-21T18:16:39.077Z,2.07
2019-05-21T18:19:08.636Z,0.90
2019-05-21T18:21:37.373Z,1.07
2019-05-21T18:24:25.220Z,1.10
2019-05-21T18:26:53.510Z,1.10
2019-05-21T18:29:21.806Z,0.97
2019-05-21T18:31:50.906Z,1.07
2019-05-21T18:34:19.212Z,1.13
2019-05-21T18:36:47.852Z,0.90
2019-05-21T18:39:16.273Z,1.13
2019-05-21T18:41:45.252Z,1.10
2019-05-21T18:44:32.958Z,0.87
2019-05-21T18:47:01.318Z,1.07
2019-05-21T18:49:29.680Z,0.90
2019-05-21T18:51:58.368Z,1.17
2019-05-21T18:54:26.747Z,5.47
2019-05-21T18:56:55.019Z,2.70
2019-05-21T18:59:23.291Z,1.87
2019-05-21T19:01:51.630Z,1.50
2019-05-21T19:04:19.984Z,1.00
2019-05-21T19:06:48.250Z,0.70
2019-05-21T19:09:16.596Z,2.10
2019-05-21T19:11:44.848Z,2.67
2019-05-21T19:14:13.190Z,2.77
2019-05-21T19:16:41.616Z,2.50
2019-05-21T19:19:09.897Z,2.27
2019-05-21T19:21:38.214Z,3.40
2019-05-21T19:24:06.600Z,3.27
2019-05-21T19:26:34.836Z,2.90
2019-05-21T19:29:07.029Z,3.43
2019-05-21T19:31:34.133Z,3.37
2019-05-21T19:34:02.436Z,4.20
2019-05-21T19:36:30.754Z,3.23
2019-05-21T19:38:59.271Z,3.47
2019-05-21T19:41:27.547Z,3.90
2019-05-21T19:43:55.843Z,4.10
2019-05-21T19:46:24.199Z,4.07
2019-05-21T19:48:52.453Z,4.03
2019-05-21T19:51:20.746Z,3.97
2019-05-21T19:53:49.110Z,3.90
2019-05-21T19:56:17.552Z,5.27
2019-05-21T19:58:45.891Z,4.30
2019-05-21T20:01:14.636Z,4.40
2019-05-21T20:03:43.497Z,4.60
2019-05-21T20:06:13.050Z,4.87
2019-05-21T20:08:41.616Z,4.83
2019-05-21T20:11:11.418Z,4.23
2019-05-21T20:13:39.692Z,4.70
2019-05-21T20:16:08.224Z,5.43
2019-05-21T20:18:36.566Z,3.70
2019-05-21T20:21:24.332Z,3.63
2019-05-21T20:23:53.154Z,4.30
2019-05-21T20:26:23.140Z,4.07
2019-05-21T20:28:51.474Z,3.10
2019-05-21T20:31:20.187Z,3.67
2019-05-21T20:33:50.047Z,3.73
2019-05-21T20:36:18.312Z,3.80
2019-05-21T20:38:46.777Z,3.30
2019-05-21T20:41:17.638Z,3.07
2019-05-21T20:43:58.283Z,4.00
2019-05-21T20:46:16.264Z,3.60
2019-05-21T20:48:44.777Z,3.70
2019-05-21T20:51:13.324Z,2.90
2019-05-21T20:53:41.588Z,3.23
2019-05-21T20:56:10.214Z,2.83
2019-05-21T20:58:38.493Z,2.67
2019-05-21T21:01:08.551Z,2.60
2019-05-21T21:03:36.790Z,3.57
2019-05-21T21:06:06.177Z,3.27
2019-05-21T21:08:36.131Z,3.07
2019-05-21T21:11:05.034Z,2.80
2019-05-21T21:13:33.722Z,3.53
2019-05-21T21:16:02.573Z,2.73
2019-05-21T21:18:31.071Z,3.50
2019-05-21T21:20:59.328Z,2.50
2019-05-21T21:23:29.325Z,2.60
2019-05-21T21:25:57.620Z,3.33
2019-05-21T21:28:25.910Z,2.87
2019-05-21T21:30:54.834Z,3.20
2019-05-21T21:33:23.524Z,3.07
2019-05-21T21:35:52.079Z,3.30
2019-05-21T21:38:25.198Z,3.40
2019-05-21T21:40:53.570Z,3.03
2019-05-21T21:43:22.282Z,3.37
2019-05-21T21:45:50.561Z,3.10
2019-05-21T21:48:19.100Z,2.87
2019-05-21T21:50:47.458Z,2.23
2019-05-21T21:53:15.722Z,3.07
2019-05-21T21:55:44.019Z,2.57
2019-05-21T21:58:12.271Z,2.73
2019-05-21T22:00:59.993Z,4.43
2019-05-21T22:03:31.606Z,3.80
2019-05-21T22:06:00.416Z,3.50
2019-05-21T22:08:30.692Z,4.03
2019-05-21T22:11:00.233Z,3.87
2019-05-21T22:13:28.573Z,3.20
2019-05-21T22:15:57.021Z,2.80
2019-05-21T22:18:25.408Z,3.60
2019-05-21T22:20:53.705Z,3.07
2019-05-21T22:24:16.683Z,3.50
2019-05-21T22:26:44.930Z,2.87
2019-05-21T22:29:13.308Z,3.67
2019-05-21T22:31:41.776Z,3.10
2019-05-21T22:34:10.195Z,3.00
2019-05-21T22:36:39.131Z,3.70
2019-05-21T22:39:10.422Z,3.27
2019-05-21T22:41:38.856Z,3.97
2019-05-21T22:44:07.253Z,3.93
2019-05-21T22:46:35.590Z,3.13
2019-05-21T22:49:03.884Z,5.03
2019-05-21T22:51:32.178Z,2.87
2019-05-21T22:54:00.411Z,3.17
2019-05-21T22:56:28.736Z,1.60
2019-05-21T22:58:57.066Z,1.67
2019-05-21T23:01:26.945Z,2.23
2019-05-21T23:03:57.408Z,2.50
2019-05-21T23:06:25.647Z,1.97
2019-05-21T23:08:53.917Z,1.87
2019-05-21T23:11:23.129Z,1.60
2019-05-21T23:13:51.662Z,1.30
2019-05-21T23:16:20.006Z,1.30
2019-05-21T23:18:49.152Z,0.90
2019-05-21T23:21:19.065Z,1.30
2019-05-21T23:23:49.404Z,1.00
2019-05-21T23:26:18.250Z,1.73
2019-05-21T23:28:46.673Z,1.00
2019-05-21T23:31:15.314Z,1.00
2019-05-21T23:33:44.001Z,1.33
2019-05-21T23:36:13.550Z,1.03
2019-05-21T23:38:41.839Z,1.13
2019-05-21T23:41:10.161Z,0.90
2019-05-21T23:43:39.610Z,1.27
2019-05-21T23:46:09.371Z,1.10
2019-05-21T23:48:37.779Z,0.93
2019-05-21T23:51:06.117Z,0.90
2019-05-21T23:53:36.070Z,0.90
2019-05-21T23:56:04.663Z,0.90
2019-05-21T23:58:33.106Z,0.80
